sensor_id;sensor_type;location;lat;lon;timestamp;P1;durP1;ratioP1;P2;durP2;ratioP2
68806;SDS011;55800;54.272;18.558;2023-06-24T00:01:41;13.05;;;8.70;;
68806;SDS011;55800;54.272;18.558;2023-06-24T00:06:44;17.00;;;9.45;;
68806;SDS011;55800;54.272;18.558;2023-06-24T00:09:13;16.73;;;11.18;;
68806;SDS011;55800;54.272;18.558;2023-06-24T00:11:42;15.23;;;10.88;;
68806;SDS011;55800;54.272;18.558;2023-06-24T00:14:11;16.88;;;10.73;;
68806;SDS011;55800;54.272;18.558;2023-06-24T00:16:43;14.43;;;10.70;;
68806;SDS011;55800;54.272;18.558;2023-06-24T00:19:14;18.33;;;11.75;;
68806;SDS011;55800;54.272;18.558;2023-06-24T00:21:45;16.02;;;9.98;;
68806;SDS011;55800;54.272;18.558;2023-06-24T00:24:15;14.85;;;10.45;;
68806;SDS011;55800;54.272;18.558;2023-06-24T00:26:46;21.88;;;11.32;;
68806;SDS011;55800;54.272;18.558;2023-06-24T00:29:15;15.48;;;10.05;;
68806;SDS011;55800;54.272;18.558;2023-06-24T00:31:45;20.20;;;10.30;;
68806;SDS011;55800;54.272;18.558;2023-06-24T00:34:16;15.80;;;9.95;;
68806;SDS011;55800;54.272;18.558;2023-06-24T00:36:47;15.07;;;11.07;;
68806;SDS011;55800;54.272;18.558;2023-06-24T00:39:18;15.65;;;9.73;;
68806;SDS011;55800;54.272;18.558;2023-06-24T00:41:48;16.05;;;9.25;;
68806;SDS011;55800;54.272;18.558;2023-06-24T00:44:17;16.80;;;9.50;;
68806;SDS011;55800;54.272;18.558;2023-06-24T00:46:47;12.52;;;8.93;;
68806;SDS011;55800;54.272;18.558;2023-06-24T00:49:18;13.50;;;6.95;;
68806;SDS011;55800;54.272;18.558;2023-06-24T00:51:47;12.68;;;8.40;;
68806;SDS011;55800;54.272;18.558;2023-06-24T00:54:17;14.00;;;8.52;;
68806;SDS011;55800;54.272;18.558;2023-06-24T00:56:47;15.77;;;9.10;;
68806;SDS011;55800;54.272;18.558;2023-06-24T00:59:16;13.90;;;9.38;;
68806;SDS011;55800;54.272;18.558;2023-06-24T01:01:47;16.73;;;9.57;;
68806;SDS011;55800;54.272;18.558;2023-06-24T01:04:18;15.98;;;9.32;;
68806;SDS011;55800;54.272;18.558;2023-06-24T01:06:48;14.95;;;9.15;;
68806;SDS011;55800;54.272;18.558;2023-06-24T01:09:17;12.32;;;8.55;;
68806;SDS011;55800;54.272;18.558;2023-06-24T01:11:46;18.50;;;9.07;;
68806;SDS011;55800;54.272;18.558;2023-06-24T01:16:49;10.18;;;7.53;;
68806;SDS011;55800;54.272;18.558;2023-06-24T01:19:33;14.52;;;8.68;;
68806;SDS011;55800;54.272;18.558;2023-06-24T01:22:28;12.95;;;8.05;;
68806;SDS011;55800;54.272;18.558;2023-06-24T01:25:13;12.25;;;7.97;;
68806;SDS011;55800;54.272;18.558;2023-06-24T01:28:06;15.75;;;8.07;;
68806;SDS011;55800;54.272;18.558;2023-06-24T01:30:52;9.38;;;6.65;;
68806;SDS011;55800;54.272;18.558;2023-06-24T01:33:38;13.70;;;7.80;;
68806;SDS011;55800;54.272;18.558;2023-06-24T01:36:11;13.75;;;8.10;;
68806;SDS011;55800;54.272;18.558;2023-06-24T01:38:46;14.80;;;7.88;;
68806;SDS011;55800;54.272;18.558;2023-06-24T01:41:21;12.70;;;7.97;;
68806;SDS011;55800;54.272;18.558;2023-06-24T01:43:53;15.55;;;8.30;;
68806;SDS011;55800;54.272;18.558;2023-06-24T01:46:24;12.90;;;8.05;;
68806;SDS011;55800;54.272;18.558;2023-06-24T01:48:59;11.35;;;7.90;;
68806;SDS011;55800;54.272;18.558;2023-06-24T01:51:31;14.85;;;9.57;;
68806;SDS011;55800;54.272;18.558;2023-06-24T01:54:04;13.93;;;7.80;;
68806;SDS011;55800;54.272;18.558;2023-06-24T01:56:38;12.38;;;7.57;;
68806;SDS011;55800;54.272;18.558;2023-06-24T01:59:10;12.63;;;7.10;;
68806;SDS011;55800;54.272;18.558;2023-06-24T02:01:40;12.70;;;8.32;;
68806;SDS011;55800;54.272;18.558;2023-06-24T02:04:11;11.50;;;7.13;;
68806;SDS011;55800;54.272;18.558;2023-06-24T02:06:42;15.68;;;8.30;;
68806;SDS011;55800;54.272;18.558;2023-06-24T02:09:15;10.13;;;6.68;;
68806;SDS011;55800;54.272;18.558;2023-06-24T02:11:46;11.80;;;7.85;;
68806;SDS011;55800;54.272;18.558;2023-06-24T02:14:16;9.77;;;6.28;;
68806;SDS011;55800;54.272;18.558;2023-06-24T02:16:46;10.57;;;6.95;;
68806;SDS011;55800;54.272;18.558;2023-06-24T02:19:19;17.95;;;7.93;;
68806;SDS011;55800;54.272;18.558;2023-06-24T02:21:48;12.38;;;7.15;;
68806;SDS011;55800;54.272;18.558;2023-06-24T02:24:21;12.02;;;6.30;;
68806;SDS011;55800;54.272;18.558;2023-06-24T02:26:51;12.18;;;7.55;;
68806;SDS011;55800;54.272;18.558;2023-06-24T02:29:21;10.82;;;6.05;;
68806;SDS011;55800;54.272;18.558;2023-06-24T02:31:53;12.00;;;5.90;;
68806;SDS011;55800;54.272;18.558;2023-06-24T02:34:24;15.32;;;7.72;;
68806;SDS011;55800;54.272;18.558;2023-06-24T02:36:54;12.70;;;6.63;;
68806;SDS011;55800;54.272;18.558;2023-06-24T02:39:23;11.85;;;6.22;;
68806;SDS011;55800;54.272;18.558;2023-06-24T02:44:22;11.93;;;6.90;;
68806;SDS011;55800;54.272;18.558;2023-06-24T02:49:21;17.40;;;6.85;;
68806;SDS011;55800;54.272;18.558;2023-06-24T02:51:52;16.85;;;6.18;;
68806;SDS011;55800;54.272;18.558;2023-06-24T02:54:22;15.15;;;5.93;;
68806;SDS011;55800;54.272;18.558;2023-06-24T02:57:10;11.20;;;5.38;;
68806;SDS011;55800;54.272;18.558;2023-06-24T03:00:01;10.15;;;5.70;;
68806;SDS011;55800;54.272;18.558;2023-06-24T03:02:46;9.85;;;6.50;;
68806;SDS011;55800;54.272;18.558;2023-06-24T03:05:17;8.75;;;6.13;;
68806;SDS011;55800;54.272;18.558;2023-06-24T03:07:48;13.88;;;7.40;;
68806;SDS011;55800;54.272;18.558;2023-06-24T03:10:20;16.63;;;6.72;;
68806;SDS011;55800;54.272;18.558;2023-06-24T03:12:52;9.77;;;5.82;;
68806;SDS011;55800;54.272;18.558;2023-06-24T03:15:28;23.77;;;7.15;;
68806;SDS011;55800;54.272;18.558;2023-06-24T03:18:01;10.68;;;5.50;;
68806;SDS011;55800;54.272;18.558;2023-06-24T03:20:31;10.18;;;6.43;;
68806;SDS011;55800;54.272;18.558;2023-06-24T03:23:11;10.77;;;6.85;;
68806;SDS011;55800;54.272;18.558;2023-06-24T03:25:41;9.07;;;5.70;;
68806;SDS011;55800;54.272;18.558;2023-06-24T03:28:10;9.35;;;5.40;;
68806;SDS011;55800;54.272;18.558;2023-06-24T03:30:45;11.98;;;5.55;;
68806;SDS011;55800;54.272;18.558;2023-06-24T03:33:18;9.05;;;5.55;;
68806;SDS011;55800;54.272;18.558;2023-06-24T03:35:48;9.95;;;5.90;;
68806;SDS011;55800;54.272;18.558;2023-06-24T03:38:21;11.77;;;5.90;;
68806;SDS011;55800;54.272;18.558;2023-06-24T03:40:51;9.68;;;5.13;;
68806;SDS011;55800;54.272;18.558;2023-06-24T03:45:50;10.65;;;5.47;;
68806;SDS011;55800;54.272;18.558;2023-06-24T03:48:19;11.15;;;6.22;;
68806;SDS011;55800;54.272;18.558;2023-06-24T03:50:49;8.95;;;5.25;;
68806;SDS011;55800;54.272;18.558;2023-06-24T03:53:20;11.95;;;4.80;;
68806;SDS011;55800;54.272;18.558;2023-06-24T03:55:51;10.18;;;5.63;;
68806;SDS011;55800;54.272;18.558;2023-06-24T03:58:20;9.20;;;4.30;;
68806;SDS011;55800;54.272;18.558;2023-06-24T04:00:49;9.55;;;4.25;;
68806;SDS011;55800;54.272;18.558;2023-06-24T04:03:18;8.50;;;3.63;;
68806;SDS011;55800;54.272;18.558;2023-06-24T04:05:48;9.25;;;5.03;;
68806;SDS011;55800;54.272;18.558;2023-06-24T04:08:22;10.25;;;5.18;;
68806;SDS011;55800;54.272;18.558;2023-06-24T04:10:56;10.07;;;5.18;;
68806;SDS011;55800;54.272;18.558;2023-06-24T04:13:26;8.82;;;4.97;;
68806;SDS011;55800;54.272;18.558;2023-06-24T04:15:56;10.80;;;4.53;;
68806;SDS011;55800;54.272;18.558;2023-06-24T04:18:26;12.77;;;5.63;;
68806;SDS011;55800;54.272;18.558;2023-06-24T04:20:56;8.60;;;4.65;;
68806;SDS011;55800;54.272;18.558;2023-06-24T04:23:26;9.27;;;4.40;;
68806;SDS011;55800;54.272;18.558;2023-06-24T04:25:56;8.95;;;4.88;;
68806;SDS011;55800;54.272;18.558;2023-06-24T04:28:25;7.63;;;4.25;;
68806;SDS011;55800;54.272;18.558;2023-06-24T04:30:54;10.52;;;5.00;;
68806;SDS011;55800;54.272;18.558;2023-06-24T04:33:24;8.55;;;4.15;;
68806;SDS011;55800;54.272;18.558;2023-06-24T04:35:54;7.75;;;4.00;;
68806;SDS011;55800;54.272;18.558;2023-06-24T04:38:24;8.18;;;4.05;;
68806;SDS011;55800;54.272;18.558;2023-06-24T04:40:55;17.38;;;5.68;;
68806;SDS011;55800;54.272;18.558;2023-06-24T04:43:26;5.93;;;3.65;;
68806;SDS011;55800;54.272;18.558;2023-06-24T04:45:55;10.52;;;4.75;;
68806;SDS011;55800;54.272;18.558;2023-06-24T04:48:24;7.40;;;4.00;;
68806;SDS011;55800;54.272;18.558;2023-06-24T04:50:54;8.85;;;4.78;;
68806;SDS011;55800;54.272;18.558;2023-06-24T04:53:24;6.05;;;4.20;;
68806;SDS011;55800;54.272;18.558;2023-06-24T04:55:56;8.98;;;4.78;;
68806;SDS011;55800;54.272;18.558;2023-06-24T05:00:54;8.35;;;4.80;;
68806;SDS011;55800;54.272;18.558;2023-06-24T05:03:23;6.38;;;3.58;;
68806;SDS011;55800;54.272;18.558;2023-06-24T05:05:53;9.13;;;3.83;;
68806;SDS011;55800;54.272;18.558;2023-06-24T05:10:53;8.65;;;4.32;;
68806;SDS011;55800;54.272;18.558;2023-06-24T05:13:22;8.30;;;4.30;;
68806;SDS011;55800;54.272;18.558;2023-06-24T05:15:52;12.40;;;4.55;;
68806;SDS011;55800;54.272;18.558;2023-06-24T05:20:50;10.73;;;4.82;;
68806;SDS011;55800;54.272;18.558;2023-06-24T05:28:19;10.23;;;4.25;;
68806;SDS011;55800;54.272;18.558;2023-06-24T05:30:48;7.55;;;4.15;;
68806;SDS011;55800;54.272;18.558;2023-06-24T05:35:46;8.90;;;4.10;;
68806;SDS011;55800;54.272;18.558;2023-06-24T05:38:17;7.65;;;4.30;;
68806;SDS011;55800;54.272;18.558;2023-06-24T05:40:46;9.55;;;5.13;;
68806;SDS011;55800;54.272;18.558;2023-06-24T05:43:15;8.30;;;4.30;;
68806;SDS011;55800;54.272;18.558;2023-06-24T05:45:46;7.15;;;3.92;;
68806;SDS011;55800;54.272;18.558;2023-06-24T05:48:15;9.30;;;4.90;;
68806;SDS011;55800;54.272;18.558;2023-06-24T05:50:44;9.77;;;5.25;;
68806;SDS011;55800;54.272;18.558;2023-06-24T05:58:11;7.68;;;4.32;;
68806;SDS011;55800;54.272;18.558;2023-06-24T06:00:41;7.68;;;4.47;;
68806;SDS011;55800;54.272;18.558;2023-06-24T06:03:12;7.97;;;3.95;;
68806;SDS011;55800;54.272;18.558;2023-06-24T06:05:42;8.50;;;4.90;;
68806;SDS011;55800;54.272;18.558;2023-06-24T06:08:11;12.05;;;5.50;;
68806;SDS011;55800;54.272;18.558;2023-06-24T06:10:40;9.70;;;5.00;;
68806;SDS011;55800;54.272;18.558;2023-06-24T06:13:09;8.25;;;4.55;;
68806;SDS011;55800;54.272;18.558;2023-06-24T06:15:40;11.63;;;4.97;;
68806;SDS011;55800;54.272;18.558;2023-06-24T06:18:09;9.63;;;5.18;;
68806;SDS011;55800;54.272;18.558;2023-06-24T06:20:41;10.65;;;4.82;;
68806;SDS011;55800;54.272;18.558;2023-06-24T06:23:10;9.77;;;4.97;;
68806;SDS011;55800;54.272;18.558;2023-06-24T06:25:39;7.15;;;4.07;;
68806;SDS011;55800;54.272;18.558;2023-06-24T06:28:08;11.23;;;5.55;;
68806;SDS011;55800;54.272;18.558;2023-06-24T06:30:38;7.95;;;4.63;;
68806;SDS011;55800;54.272;18.558;2023-06-24T06:33:07;7.10;;;4.50;;
68806;SDS011;55800;54.272;18.558;2023-06-24T06:35:37;7.43;;;4.40;;
68806;SDS011;55800;54.272;18.558;2023-06-24T06:38:07;9.32;;;5.00;;
68806;SDS011;55800;54.272;18.558;2023-06-24T06:40:36;10.63;;;4.82;;
68806;SDS011;55800;54.272;18.558;2023-06-24T06:43:06;10.27;;;5.53;;
68806;SDS011;55800;54.272;18.558;2023-06-24T06:45:35;11.70;;;5.18;;
68806;SDS011;55800;54.272;18.558;2023-06-24T06:48:05;8.73;;;5.20;;
68806;SDS011;55800;54.272;18.558;2023-06-24T06:50:35;10.35;;;4.72;;
68806;SDS011;55800;54.272;18.558;2023-06-24T06:53:04;8.25;;;5.07;;
68806;SDS011;55800;54.272;18.558;2023-06-24T06:55:35;11.40;;;5.47;;
68806;SDS011;55800;54.272;18.558;2023-06-24T06:58:06;7.40;;;4.40;;
68806;SDS011;55800;54.272;18.558;2023-06-24T07:00:35;6.53;;;4.00;;
68806;SDS011;55800;54.272;18.558;2023-06-24T07:03:04;12.63;;;4.90;;
68806;SDS011;55800;54.272;18.558;2023-06-24T07:05:34;9.68;;;4.60;;
68806;SDS011;55800;54.272;18.558;2023-06-24T07:08:05;15.77;;;5.15;;
68806;SDS011;55800;54.272;18.558;2023-06-24T07:10:36;12.05;;;4.55;;
68806;SDS011;55800;54.272;18.558;2023-06-24T07:13:05;14.27;;;6.45;;
68806;SDS011;55800;54.272;18.558;2023-06-24T07:15:34;6.60;;;4.10;;
68806;SDS011;55800;54.272;18.558;2023-06-24T07:18:04;8.10;;;4.28;;
68806;SDS011;55800;54.272;18.558;2023-06-24T07:20:33;6.20;;;4.00;;
68806;SDS011;55800;54.272;18.558;2023-06-24T07:23:02;7.30;;;4.45;;
68806;SDS011;55800;54.272;18.558;2023-06-24T07:25:32;10.48;;;5.15;;
68806;SDS011;55800;54.272;18.558;2023-06-24T07:28:03;8.88;;;5.32;;
68806;SDS011;55800;54.272;18.558;2023-06-24T07:30:33;8.35;;;4.63;;
68806;SDS011;55800;54.272;18.558;2023-06-24T07:33:02;10.98;;;4.05;;
68806;SDS011;55800;54.272;18.558;2023-06-24T07:35:32;8.82;;;4.20;;
68806;SDS011;55800;54.272;18.558;2023-06-24T07:38:02;7.13;;;4.28;;
68806;SDS011;55800;54.272;18.558;2023-06-24T07:40:31;8.65;;;4.65;;
68806;SDS011;55800;54.272;18.558;2023-06-24T07:43:00;12.27;;;4.90;;
68806;SDS011;55800;54.272;18.558;2023-06-24T07:45:31;8.02;;;4.65;;
68806;SDS011;55800;54.272;18.558;2023-06-24T07:48:00;7.63;;;4.68;;
68806;SDS011;55800;54.272;18.558;2023-06-24T07:50:32;11.02;;;4.90;;
68806;SDS011;55800;54.272;18.558;2023-06-24T07:53:01;8.13;;;4.93;;
68806;SDS011;55800;54.272;18.558;2023-06-24T07:55:31;9.10;;;5.05;;
68806;SDS011;55800;54.272;18.558;2023-06-24T07:58:00;11.60;;;4.78;;
68806;SDS011;55800;54.272;18.558;2023-06-24T08:00:32;6.78;;;4.50;;
68806;SDS011;55800;54.272;18.558;2023-06-24T08:03:05;8.43;;;4.53;;
68806;SDS011;55800;54.272;18.558;2023-06-24T08:05:35;7.55;;;5.03;;
68806;SDS011;55800;54.272;18.558;2023-06-24T08:08:05;9.95;;;4.07;;
68806;SDS011;55800;54.272;18.558;2023-06-24T08:10:36;7.43;;;3.88;;
68806;SDS011;55800;54.272;18.558;2023-06-24T08:13:05;9.05;;;4.43;;
68806;SDS011;55800;54.272;18.558;2023-06-24T08:15:36;7.25;;;4.22;;
68806;SDS011;55800;54.272;18.558;2023-06-24T08:18:08;6.13;;;3.92;;
68806;SDS011;55800;54.272;18.558;2023-06-24T08:20:38;13.98;;;4.07;;
68806;SDS011;55800;54.272;18.558;2023-06-24T08:23:07;9.93;;;4.85;;
68806;SDS011;55800;54.272;18.558;2023-06-24T08:25:37;7.57;;;4.45;;
68806;SDS011;55800;54.272;18.558;2023-06-24T08:28:06;7.68;;;4.78;;
68806;SDS011;55800;54.272;18.558;2023-06-24T08:30:36;8.60;;;3.97;;
68806;SDS011;55800;54.272;18.558;2023-06-24T08:33:06;6.47;;;3.53;;
68806;SDS011;55800;54.272;18.558;2023-06-24T08:35:40;7.35;;;4.47;;
68806;SDS011;55800;54.272;18.558;2023-06-24T08:38:09;9.35;;;3.67;;
68806;SDS011;55800;54.272;18.558;2023-06-24T08:40:38;6.68;;;3.88;;
68806;SDS011;55800;54.272;18.558;2023-06-24T08:43:07;9.77;;;4.38;;
68806;SDS011;55800;54.272;18.558;2023-06-24T08:45:39;10.20;;;4.78;;
68806;SDS011;55800;54.272;18.558;2023-06-24T08:48:08;10.60;;;5.10;;
68806;SDS011;55800;54.272;18.558;2023-06-24T08:50:39;8.35;;;4.65;;
68806;SDS011;55800;54.272;18.558;2023-06-24T08:53:13;6.68;;;4.38;;
68806;SDS011;55800;54.272;18.558;2023-06-24T08:55:43;10.05;;;4.07;;
68806;SDS011;55800;54.272;18.558;2023-06-24T08:58:13;6.55;;;4.18;;
68806;SDS011;55800;54.272;18.558;2023-06-24T09:00:44;9.18;;;4.13;;
68806;SDS011;55800;54.272;18.558;2023-06-24T09:03:14;6.85;;;4.10;;
68806;SDS011;55800;54.272;18.558;2023-06-24T09:05:43;22.90;;;5.20;;
68806;SDS011;55800;54.272;18.558;2023-06-24T09:08:12;9.07;;;4.18;;
68806;SDS011;55800;54.272;18.558;2023-06-24T09:10:43;7.10;;;4.70;;
68806;SDS011;55800;54.272;18.558;2023-06-24T09:13:12;9.23;;;4.55;;
68806;SDS011;55800;54.272;18.558;2023-06-24T09:15:41;24.00;;;5.00;;
68806;SDS011;55800;54.272;18.558;2023-06-24T09:18:12;6.47;;;4.35;;
68806;SDS011;55800;54.272;18.558;2023-06-24T09:20:44;12.48;;;4.40;;
68806;SDS011;55800;54.272;18.558;2023-06-24T09:23:16;8.45;;;4.18;;
68806;SDS011;55800;54.272;18.558;2023-06-24T09:25:49;7.97;;;4.45;;
68806;SDS011;55800;54.272;18.558;2023-06-24T09:28:26;9.25;;;4.20;;
68806;SDS011;55800;54.272;18.558;2023-06-24T09:31:05;8.38;;;4.32;;
68806;SDS011;55800;54.272;18.558;2023-06-24T09:33:47;11.35;;;4.47;;
68806;SDS011;55800;54.272;18.558;2023-06-24T09:36:16;7.72;;;3.97;;
68806;SDS011;55800;54.272;18.558;2023-06-24T09:38:45;8.43;;;4.45;;
68806;SDS011;55800;54.272;18.558;2023-06-24T09:41:15;7.70;;;4.55;;
68806;SDS011;55800;54.272;18.558;2023-06-24T09:43:44;9.35;;;4.30;;
68806;SDS011;55800;54.272;18.558;2023-06-24T09:46:14;9.27;;;4.28;;
68806;SDS011;55800;54.272;18.558;2023-06-24T09:48:46;11.35;;;4.32;;
68806;SDS011;55800;54.272;18.558;2023-06-24T09:51:15;6.80;;;4.13;;
68806;SDS011;55800;54.272;18.558;2023-06-24T09:53:46;7.13;;;4.80;;
68806;SDS011;55800;54.272;18.558;2023-06-24T09:56:17;8.18;;;4.47;;
68806;SDS011;55800;54.272;18.558;2023-06-24T09:58:47;7.43;;;4.32;;
68806;SDS011;55800;54.272;18.558;2023-06-24T10:01:17;8.52;;;4.07;;
68806;SDS011;55800;54.272;18.558;2023-06-24T10:03:48;15.93;;;4.60;;
68806;SDS011;55800;54.272;18.558;2023-06-24T10:06:18;9.23;;;3.97;;
68806;SDS011;55800;54.272;18.558;2023-06-24T10:08:48;9.15;;;4.10;;
68806;SDS011;55800;54.272;18.558;2023-06-24T10:11:18;17.60;;;5.05;;
68806;SDS011;55800;54.272;18.558;2023-06-24T10:13:47;6.00;;;2.42;;
68806;SDS011;55800;54.272;18.558;2023-06-24T10:16:16;7.13;;;4.88;;
68806;SDS011;55800;54.272;18.558;2023-06-24T10:18:47;9.18;;;4.00;;
68806;SDS011;55800;54.272;18.558;2023-06-24T10:21:17;7.63;;;4.10;;
68806;SDS011;55800;54.272;18.558;2023-06-24T10:23:52;7.30;;;3.85;;
68806;SDS011;55800;54.272;18.558;2023-06-24T10:26:22;6.70;;;3.78;;
68806;SDS011;55800;54.272;18.558;2023-06-24T10:31:51;7.82;;;4.22;;
68806;SDS011;55800;54.272;18.558;2023-06-24T10:34:29;10.00;;;5.43;;
68806;SDS011;55800;54.272;18.558;2023-06-24T10:37:11;5.45;;;3.42;;
68806;SDS011;55800;54.272;18.558;2023-06-24T10:39:45;9.70;;;4.13;;
68806;SDS011;55800;54.272;18.558;2023-06-24T10:42:29;7.53;;;3.85;;
68806;SDS011;55800;54.272;18.558;2023-06-24T10:45:01;10.05;;;3.70;;
68806;SDS011;55800;54.272;18.558;2023-06-24T10:47:42;7.25;;;3.83;;
68806;SDS011;55800;54.272;18.558;2023-06-24T10:50:14;9.73;;;4.57;;
68806;SDS011;55800;54.272;18.558;2023-06-24T10:52:48;7.72;;;4.05;;
68806;SDS011;55800;54.272;18.558;2023-06-24T10:55:21;7.65;;;4.47;;
68806;SDS011;55800;54.272;18.558;2023-06-24T10:57:54;4.28;;;2.90;;
68806;SDS011;55800;54.272;18.558;2023-06-24T11:00:38;11.85;;;4.32;;
68806;SDS011;55800;54.272;18.558;2023-06-24T11:03:08;6.50;;;4.25;;
68806;SDS011;55800;54.272;18.558;2023-06-24T11:05:40;11.57;;;3.85;;
68806;SDS011;55800;54.272;18.558;2023-06-24T11:08:10;7.03;;;4.72;;
68806;SDS011;55800;54.272;18.558;2023-06-24T11:10:44;5.53;;;3.45;;
68806;SDS011;55800;54.272;18.558;2023-06-24T11:13:14;11.77;;;4.47;;
68806;SDS011;55800;54.272;18.558;2023-06-24T11:15:47;7.80;;;3.85;;
68806;SDS011;55800;54.272;18.558;2023-06-24T11:18:17;6.88;;;4.15;;
68806;SDS011;55800;54.272;18.558;2023-06-24T11:20:47;7.97;;;4.18;;
68806;SDS011;55800;54.272;18.558;2023-06-24T11:23:21;10.57;;;4.53;;
68806;SDS011;55800;54.272;18.558;2023-06-24T11:25:52;8.60;;;4.13;;
68806;SDS011;55800;54.272;18.558;2023-06-24T11:28:23;8.40;;;3.92;;
68806;SDS011;55800;54.272;18.558;2023-06-24T11:30:53;6.97;;;3.70;;
68806;SDS011;55800;54.272;18.558;2023-06-24T11:33:26;10.27;;;3.70;;
68806;SDS011;55800;54.272;18.558;2023-06-24T11:35:57;6.15;;;3.75;;
68806;SDS011;55800;54.272;18.558;2023-06-24T11:38:27;6.95;;;3.50;;
68806;SDS011;55800;54.272;18.558;2023-06-24T11:40:59;6.25;;;3.92;;
68806;SDS011;55800;54.272;18.558;2023-06-24T11:43:28;7.28;;;4.18;;
68806;SDS011;55800;54.272;18.558;2023-06-24T11:45:57;6.13;;;3.65;;
68806;SDS011;55800;54.272;18.558;2023-06-24T11:48:27;11.43;;;4.50;;
68806;SDS011;55800;54.272;18.558;2023-06-24T11:50:58;7.43;;;4.00;;
68806;SDS011;55800;54.272;18.558;2023-06-24T11:53:30;5.78;;;3.35;;
68806;SDS011;55800;54.272;18.558;2023-06-24T11:56:08;12.63;;;4.47;;
68806;SDS011;55800;54.272;18.558;2023-06-24T11:58:38;6.18;;;3.75;;
68806;SDS011;55800;54.272;18.558;2023-06-24T12:01:10;11.32;;;3.97;;
68806;SDS011;55800;54.272;18.558;2023-06-24T12:03:40;6.57;;;4.00;;
68806;SDS011;55800;54.272;18.558;2023-06-24T12:06:13;7.55;;;4.25;;
68806;SDS011;55800;54.272;18.558;2023-06-24T12:08:42;7.88;;;4.22;;
68806;SDS011;55800;54.272;18.558;2023-06-24T12:11:18;7.47;;;4.13;;
68806;SDS011;55800;54.272;18.558;2023-06-24T12:13:48;9.27;;;4.10;;
68806;SDS011;55800;54.272;18.558;2023-06-24T12:16:17;8.32;;;3.97;;
68806;SDS011;55800;54.272;18.558;2023-06-24T12:18:47;11.98;;;4.28;;
68806;SDS011;55800;54.272;18.558;2023-06-24T12:21:17;11.20;;;4.53;;
68806;SDS011;55800;54.272;18.558;2023-06-24T12:23:47;10.15;;;4.65;;
68806;SDS011;55800;54.272;18.558;2023-06-24T12:26:16;6.93;;;3.80;;
68806;SDS011;55800;54.272;18.558;2023-06-24T12:28:46;13.55;;;4.72;;
68806;SDS011;55800;54.272;18.558;2023-06-24T12:31:15;9.40;;;4.15;;
68806;SDS011;55800;54.272;18.558;2023-06-24T12:33:44;9.68;;;4.95;;
68806;SDS011;55800;54.272;18.558;2023-06-24T12:36:13;6.55;;;4.35;;
68806;SDS011;55800;54.272;18.558;2023-06-24T12:38:44;11.85;;;4.78;;
68806;SDS011;55800;54.272;18.558;2023-06-24T12:41:13;9.15;;;4.88;;
68806;SDS011;55800;54.272;18.558;2023-06-24T12:43:43;10.00;;;5.15;;
68806;SDS011;55800;54.272;18.558;2023-06-24T12:46:12;12.43;;;4.78;;
68806;SDS011;55800;54.272;18.558;2023-06-24T12:48:41;9.85;;;4.32;;
68806;SDS011;55800;54.272;18.558;2023-06-24T12:51:11;8.43;;;4.70;;
68806;SDS011;55800;54.272;18.558;2023-06-24T12:53:40;7.20;;;3.88;;
68806;SDS011;55800;54.272;18.558;2023-06-24T12:56:11;8.20;;;3.28;;
68806;SDS011;55800;54.272;18.558;2023-06-24T12:58:40;10.63;;;4.63;;
68806;SDS011;55800;54.272;18.558;2023-06-24T13:01:09;9.82;;;5.35;;
68806;SDS011;55800;54.272;18.558;2023-06-24T13:03:41;9.25;;;4.75;;
68806;SDS011;55800;54.272;18.558;2023-06-24T13:06:11;7.28;;;4.47;;
68806;SDS011;55800;54.272;18.558;2023-06-24T13:08:41;7.20;;;4.45;;
68806;SDS011;55800;54.272;18.558;2023-06-24T13:11:11;7.53;;;4.07;;
68806;SDS011;55800;54.272;18.558;2023-06-24T13:13:41;13.90;;;4.75;;
68806;SDS011;55800;54.272;18.558;2023-06-24T13:16:10;8.63;;;3.80;;
68806;SDS011;55800;54.272;18.558;2023-06-24T13:18:40;10.90;;;4.53;;
68806;SDS011;55800;54.272;18.558;2023-06-24T13:21:09;7.28;;;3.80;;
68806;SDS011;55800;54.272;18.558;2023-06-24T13:23:42;7.05;;;4.05;;
68806;SDS011;55800;54.272;18.558;2023-06-24T13:26:14;8.95;;;4.22;;
68806;SDS011;55800;54.272;18.558;2023-06-24T13:28:46;13.75;;;4.55;;
68806;SDS011;55800;54.272;18.558;2023-06-24T13:31:16;10.02;;;4.22;;
68806;SDS011;55800;54.272;18.558;2023-06-24T13:33:46;11.00;;;4.30;;
68806;SDS011;55800;54.272;18.558;2023-06-24T13:36:27;6.68;;;4.22;;
68806;SDS011;55800;54.272;18.558;2023-06-24T13:38:59;6.18;;;4.03;;
68806;SDS011;55800;54.272;18.558;2023-06-24T13:41:30;12.32;;;4.88;;
68806;SDS011;55800;54.272;18.558;2023-06-24T13:44:00;11.75;;;4.55;;
68806;SDS011;55800;54.272;18.558;2023-06-24T13:46:30;11.55;;;5.65;;
68806;SDS011;55800;54.272;18.558;2023-06-24T13:49:01;7.70;;;4.32;;
68806;SDS011;55800;54.272;18.558;2023-06-24T13:51:32;7.80;;;3.63;;
68806;SDS011;55800;54.272;18.558;2023-06-24T13:54:02;10.55;;;3.78;;
68806;SDS011;55800;54.272;18.558;2023-06-24T13:56:33;6.70;;;4.15;;
68806;SDS011;55800;54.272;18.558;2023-06-24T13:59:03;8.25;;;3.92;;
68806;SDS011;55800;54.272;18.558;2023-06-24T14:01:32;10.00;;;3.60;;
68806;SDS011;55800;54.272;18.558;2023-06-24T14:04:03;8.90;;;3.63;;
68806;SDS011;55800;54.272;18.558;2023-06-24T14:06:32;7.25;;;3.30;;
68806;SDS011;55800;54.272;18.558;2023-06-24T14:09:02;10.02;;;5.13;;
68806;SDS011;55800;54.272;18.558;2023-06-24T14:11:31;11.30;;;4.25;;
68806;SDS011;55800;54.272;18.558;2023-06-24T14:14:02;5.75;;;3.40;;
68806;SDS011;55800;54.272;18.558;2023-06-24T14:16:31;9.93;;;4.20;;
68806;SDS011;55800;54.272;18.558;2023-06-24T14:19:01;6.82;;;3.58;;
68806;SDS011;55800;54.272;18.558;2023-06-24T14:21:30;6.88;;;2.47;;
68806;SDS011;55800;54.272;18.558;2023-06-24T14:24:00;6.82;;;3.80;;
68806;SDS011;55800;54.272;18.558;2023-06-24T14:26:43;6.60;;;4.63;;
68806;SDS011;55800;54.272;18.558;2023-06-24T14:29:16;8.48;;;4.40;;
68806;SDS011;55800;54.272;18.558;2023-06-24T14:31:45;8.25;;;3.75;;
68806;SDS011;55800;54.272;18.558;2023-06-24T14:34:15;10.57;;;4.72;;
68806;SDS011;55800;54.272;18.558;2023-06-24T14:36:44;7.15;;;3.78;;
68806;SDS011;55800;54.272;18.558;2023-06-24T14:39:14;8.05;;;4.00;;
68806;SDS011;55800;54.272;18.558;2023-06-24T14:41:45;9.13;;;4.10;;
68806;SDS011;55800;54.272;18.558;2023-06-24T14:44:15;19.98;;;3.47;;
68806;SDS011;55800;54.272;18.558;2023-06-24T14:46:44;12.30;;;4.13;;
68806;SDS011;55800;54.272;18.558;2023-06-24T14:49:14;7.35;;;3.22;;
68806;SDS011;55800;54.272;18.558;2023-06-24T14:51:44;7.00;;;4.13;;
68806;SDS011;55800;54.272;18.558;2023-06-24T14:54:13;8.02;;;3.33;;
68806;SDS011;55800;54.272;18.558;2023-06-24T14:56:42;8.52;;;3.60;;
68806;SDS011;55800;54.272;18.558;2023-06-24T14:59:18;7.43;;;3.20;;
68806;SDS011;55800;54.272;18.558;2023-06-24T15:01:47;5.85;;;3.20;;
68806;SDS011;55800;54.272;18.558;2023-06-24T15:04:17;8.88;;;4.05;;
68806;SDS011;55800;54.272;18.558;2023-06-24T15:06:49;6.00;;;3.55;;
68806;SDS011;55800;54.272;18.558;2023-06-24T15:09:18;6.72;;;3.50;;
68806;SDS011;55800;54.272;18.558;2023-06-24T15:11:50;6.05;;;3.45;;
68806;SDS011;55800;54.272;18.558;2023-06-24T15:14:20;10.02;;;3.58;;
68806;SDS011;55800;54.272;18.558;2023-06-24T15:16:51;5.78;;;3.00;;
68806;SDS011;55800;54.272;18.558;2023-06-24T15:19:21;9.75;;;3.80;;
68806;SDS011;55800;54.272;18.558;2023-06-24T15:21:50;8.00;;;3.60;;
68806;SDS011;55800;54.272;18.558;2023-06-24T15:24:22;8.32;;;3.75;;
68806;SDS011;55800;54.272;18.558;2023-06-24T15:26:52;6.70;;;3.03;;